sensor_id;sensor_type;location;lat;lon;timestamp;temperature;humidity
27645;DHT22;15054;57.152;-2.118;2022-07-18T00:00:39;17.80;99.90
27645;DHT22;15054;57.152;-2.118;2022-07-18T00:03:06;17.80;99.90
27645;DHT22;15054;57.152;-2.118;2022-07-18T00:05:33;17.80;99.90
27645;DHT22;15054;57.152;-2.118;2022-07-18T00:08:01;17.80;99.90
27645;DHT22;15054;57.152;-2.118;2022-07-18T00:10:28;17.80;99.90
27645;DHT22;15054;57.152;-2.118;2022-07-18T00:12:55;17.80;99.90
27645;DHT22;15054;57.152;-2.118;2022-07-18T00:15:22;17.70;99.90
27645;DHT22;15054;57.152;-2.118;2022-07-18T00:17:49;17.70;99.90
27645;DHT22;15054;57.152;-2.118;2022-07-18T00:20:16;17.70;99.90
27645;DHT22;15054;57.152;-2.118;2022-07-18T00:22:44;17.70;99.90
27645;DHT22;15054;57.152;-2.118;2022-07-18T00:25:11;17.70;99.90
27645;DHT22;15054;57.152;-2.118;2022-07-18T00:27:38;17.60;99.90
27645;DHT22;15054;57.152;-2.118;2022-07-18T00:30:05;17.60;99.90
27645;DHT22;15054;57.152;-2.118;2022-07-18T00:32:33;17.60;99.90
27645;DHT22;15054;57.152;-2.118;2022-07-18T00:35:00;17.60;99.90
27645;DHT22;15054;57.152;-2.118;2022-07-18T00:37:27;17.50;99.90
27645;DHT22;15054;57.152;-2.118;2022-07-18T00:39:55;17.50;99.90
27645;DHT22;15054;57.152;-2.118;2022-07-18T00:42:22;17.50;99.90
27645;DHT22;15054;57.152;-2.118;2022-07-18T00:44:53;17.50;99.90
27645;DHT22;15054;57.152;-2.118;2022-07-18T00:47:21;17.60;99.90
27645;DHT22;15054;57.152;-2.118;2022-07-18T00:49:49;17.60;99.90
27645;DHT22;15054;57.152;-2.118;2022-07-18T00:52:16;17.50;99.90
27645;DHT22;15054;57.152;-2.118;2022-07-18T00:54:43;17.50;99.90
27645;DHT22;15054;57.152;-2.118;2022-07-18T00:57:10;17.50;99.90
27645;DHT22;15054;57.152;-2.118;2022-07-18T00:59:39;17.50;99.90
27645;DHT22;15054;57.152;-2.118;2022-07-18T01:02:25;17.50;99.90
27645;DHT22;15054;57.152;-2.118;2022-07-18T01:04:53;17.50;99.90
27645;DHT22;15054;57.152;-2.118;2022-07-18T01:07:21;17.50;99.90
27645;DHT22;15054;57.152;-2.118;2022-07-18T01:09:48;17.50;99.90
27645;DHT22;15054;57.152;-2.118;2022-07-18T01:12:15;17.50;99.90
27645;DHT22;15054;57.152;-2.118;2022-07-18T01:14:43;17.50;99.90
27645;DHT22;15054;57.152;-2.118;2022-07-18T01:17:18;17.50;99.90
27645;DHT22;15054;57.152;-2.118;2022-07-18T01:19:46;17.40;99.90
27645;DHT22;15054;57.152;-2.118;2022-07-18T01:22:16;17.40;99.90
27645;DHT22;15054;57.152;-2.118;2022-07-18T01:24:45;17.40;99.90
27645;DHT22;15054;57.152;-2.118;2022-07-18T01:27:18;17.40;99.90
27645;DHT22;15054;57.152;-2.118;2022-07-18T01:29:46;17.40;99.90
27645;DHT22;15054;57.152;-2.118;2022-07-18T01:32:14;17.40;99.90
27645;DHT22;15054;57.152;-2.118;2022-07-18T01:34:42;17.40;99.90
27645;DHT22;15054;57.152;-2.118;2022-07-18T01:37:10;17.40;99.90
27645;DHT22;15054;57.152;-2.118;2022-07-18T01:39:37;17.40;99.90
27645;DHT22;15054;57.152;-2.118;2022-07-18T01:42:06;17.40;99.90
27645;DHT22;15054;57.152;-2.118;2022-07-18T01:44:35;17.30;99.90
27645;DHT22;15054;57.152;-2.118;2022-07-18T01:47:03;17.40;99.90
27645;DHT22;15054;57.152;-2.118;2022-07-18T01:49:31;17.30;99.90
27645;DHT22;15054;57.152;-2.118;2022-07-18T01:51:59;17.30;99.90
27645;DHT22;15054;57.152;-2.118;2022-07-18T01:54:29;17.30;99.90
27645;DHT22;15054;57.152;-2.118;2022-07-18T01:56:57;17.20;99.90
27645;DHT22;15054;57.152;-2.118;2022-07-18T01:59:25;17.20;99.90
27645;DHT22;15054;57.152;-2.118;2022-07-18T02:01:52;17.20;99.90
27645;DHT22;15054;57.152;-2.118;2022-07-18T02:04:20;17.20;99.90
27645;DHT22;15054;57.152;-2.118;2022-07-18T02:06:47;17.20;99.90
27645;DHT22;15054;57.152;-2.118;2022-07-18T02:09:14;17.10;99.90
27645;DHT22;15054;57.152;-2.118;2022-07-18T02:11:41;17.10;99.90
27645;DHT22;15054;57.152;-2.118;2022-07-18T02:14:08;17.10;99.90
27645;DHT22;15054;57.152;-2.118;2022-07-18T02:16:35;17.00;99.90
27645;DHT22;15054;57.152;-2.118;2022-07-18T02:19:02;17.00;99.90
27645;DHT22;15054;57.152;-2.118;2022-07-18T02:21:29;17.00;99.90
27645;DHT22;15054;57.152;-2.118;2022-07-18T02:23:56;17.00;99.90
27645;DHT22;15054;57.152;-2.118;2022-07-18T02:26:23;17.00;99.90
27645;DHT22;15054;57.152;-2.118;2022-07-18T02:28:51;17.00;99.90
27645;DHT22;15054;57.152;-2.118;2022-07-18T02:31:18;17.00;99.90
27645;DHT22;15054;57.152;-2.118;2022-07-18T02:33:45;17.00;99.90
27645;DHT22;15054;57.152;-2.118;2022-07-18T02:36:12;17.00;99.90
27645;DHT22;15054;57.152;-2.118;2022-07-18T02:38:40;17.00;99.90
27645;DHT22;15054;57.152;-2.118;2022-07-18T02:41:07;17.00;99.90
27645;DHT22;15054;57.152;-2.118;2022-07-18T02:43:34;16.90;99.90
27645;DHT22;15054;57.152;-2.118;2022-07-18T02:46:03;17.00;99.90
27645;DHT22;15054;57.152;-2.118;2022-07-18T02:48:30;17.00;99.90
27645;DHT22;15054;57.152;-2.118;2022-07-18T02:50:57;17.00;99.90
27645;DHT22;15054;57.152;-2.118;2022-07-18T02:53:24;17.00;99.90
27645;DHT22;15054;57.152;-2.118;2022-07-18T02:55:52;16.90;99.90
27645;DHT22;15054;57.152;-2.118;2022-07-18T02:58:19;17.00;99.90
27645;DHT22;15054;57.152;-2.118;2022-07-18T03:00:46;17.00;99.90
27645;DHT22;15054;57.152;-2.118;2022-07-18T03:03:13;16.90;99.90
27645;DHT22;15054;57.152;-2.118;2022-07-18T03:05:40;16.90;99.90
27645;DHT22;15054;57.152;-2.118;2022-07-18T03:08:07;16.90;99.90
27645;DHT22;15054;57.152;-2.118;2022-07-18T03:10:34;16.80;99.90
27645;DHT22;15054;57.152;-2.118;2022-07-18T03:13:02;16.80;99.90
27645;DHT22;15054;57.152;-2.118;2022-07-18T03:15:29;16.80;99.90
27645;DHT22;15054;57.152;-2.118;2022-07-18T03:17:56;16.70;99.90
27645;DHT22;15054;57.152;-2.118;2022-07-18T03:20:23;16.70;99.90
27645;DHT22;15054;57.152;-2.118;2022-07-18T03:22:50;16.60;99.90
27645;DHT22;15054;57.152;-2.118;2022-07-18T03:25:17;16.60;99.90
27645;DHT22;15054;57.152;-2.118;2022-07-18T03:27:44;16.60;99.90
27645;DHT22;15054;57.152;-2.118;2022-07-18T03:30:12;16.60;99.90
27645;DHT22;15054;57.152;-2.118;2022-07-18T03:32:39;16.70;99.90
27645;DHT22;15054;57.152;-2.118;2022-07-18T03:35:07;16.60;99.90
27645;DHT22;15054;57.152;-2.118;2022-07-18T03:37:34;16.60;99.90
27645;DHT22;15054;57.152;-2.118;2022-07-18T03:40:01;16.60;99.90
27645;DHT22;15054;57.152;-2.118;2022-07-18T03:42:29;16.60;99.90
27645;DHT22;15054;57.152;-2.118;2022-07-18T03:44:56;16.60;99.90
27645;DHT22;15054;57.152;-2.118;2022-07-18T03:47:23;16.60;99.90
27645;DHT22;15054;57.152;-2.118;2022-07-18T03:49:50;16.60;99.90
27645;DHT22;15054;57.152;-2.118;2022-07-18T03:52:17;16.60;99.90
27645;DHT22;15054;57.152;-2.118;2022-07-18T03:54:44;16.60;99.90
27645;DHT22;15054;57.152;-2.118;2022-07-18T03:57:11;16.50;99.90
27645;DHT22;15054;57.152;-2.118;2022-07-18T03:59:39;16.50;99.90
27645;DHT22;15054;57.152;-2.118;2022-07-18T04:02:06;16.40;99.90
27645;DHT22;15054;57.152;-2.118;2022-07-18T04:04:33;16.40;99.90
27645;DHT22;15054;57.152;-2.118;2022-07-18T04:07:00;16.30;99.90
27645;DHT22;15054;57.152;-2.118;2022-07-18T04:09:27;16.30;99.90
27645;DHT22;15054;57.152;-2.118;2022-07-18T04:11:55;16.30;99.90
27645;DHT22;15054;57.152;-2.118;2022-07-18T04:14:22;16.20;99.90
27645;DHT22;15054;57.152;-2.118;2022-07-18T04:16:49;16.20;99.90
27645;DHT22;15054;57.152;-2.118;2022-07-18T04:19:16;16.30;99.90
27645;DHT22;15054;57.152;-2.118;2022-07-18T04:21:46;16.30;99.90
27645;DHT22;15054;57.152;-2.118;2022-07-18T04:24:13;16.20;99.90
27645;DHT22;15054;57.152;-2.118;2022-07-18T04:26:40;16.30;99.90
27645;DHT22;15054;57.152;-2.118;2022-07-18T04:29:08;16.30;99.90
27645;DHT22;15054;57.152;-2.118;2022-07-18T04:31:35;16.30;99.90
27645;DHT22;15054;57.152;-2.118;2022-07-18T04:34:02;16.30;99.90
27645;DHT22;15054;57.152;-2.118;2022-07-18T04:36:29;16.30;99.90
27645;DHT22;15054;57.152;-2.118;2022-07-18T04:38:57;16.30;99.90
27645;DHT22;15054;57.152;-2.118;2022-07-18T04:41:24;16.40;99.90
27645;DHT22;15054;57.152;-2.118;2022-07-18T04:43:52;16.40;99.90
27645;DHT22;15054;57.152;-2.118;2022-07-18T04:46:19;16.40;99.90
27645;DHT22;15054;57.152;-2.118;2022-07-18T04:48:47;16.40;99.90
27645;DHT22;15054;57.152;-2.118;2022-07-18T04:51:14;16.50;99.90
27645;DHT22;15054;57.152;-2.118;2022-07-18T04:53:41;16.50;99.90
27645;DHT22;15054;57.152;-2.118;2022-07-18T04:56:08;16.50;99.90
27645;DHT22;15054;57.152;-2.118;2022-07-18T04:58:35;16.50;99.90
27645;DHT22;15054;57.152;-2.118;2022-07-18T05:01:03;16.50;99.90
27645;DHT22;15054;57.152;-2.118;2022-07-18T05:03:30;16.50;99.90
27645;DHT22;15054;57.152;-2.118;2022-07-18T05:05:57;16.50;99.90
27645;DHT22;15054;57.152;-2.118;2022-07-18T05:08:24;16.60;99.90
27645;DHT22;15054;57.152;-2.118;2022-07-18T05:10:51;16.60;99.90
27645;DHT22;15054;57.152;-2.118;2022-07-18T05:13:19;16.60;99.90
27645;DHT22;15054;57.152;-2.118;2022-07-18T05:15:46;16.70;99.90
27645;DHT22;15054;57.152;-2.118;2022-07-18T05:18:13;16.70;99.90
27645;DHT22;15054;57.152;-2.118;2022-07-18T05:20:41;16.80;99.90
27645;DHT22;15054;57.152;-2.118;2022-07-18T05:23:10;17.00;99.90
27645;DHT22;15054;57.152;-2.118;2022-07-18T05:25:37;17.20;99.90
27645;DHT22;15054;57.152;-2.118;2022-07-18T05:28:05;17.30;99.90
27645;DHT22;15054;57.152;-2.118;2022-07-18T05:30:32;17.50;99.90
27645;DHT22;15054;57.152;-2.118;2022-07-18T05:32:59;17.80;99.90
27645;DHT22;15054;57.152;-2.118;2022-07-18T05:35:26;18.50;99.90
27645;DHT22;15054;57.152;-2.118;2022-07-18T05:37:53;18.80;99.90
27645;DHT22;15054;57.152;-2.118;2022-07-18T05:40:20;19.20;99.90
27645;DHT22;15054;57.152;-2.118;2022-07-18T05:42:48;19.20;99.90
27645;DHT22;15054;57.152;-2.118;2022-07-18T05:45:21;18.90;99.90
27645;DHT22;15054;57.152;-2.118;2022-07-18T05:47:51;18.70;99.90
27645;DHT22;15054;57.152;-2.118;2022-07-18T05:50:18;18.60;99.90
27645;DHT22;15054;57.152;-2.118;2022-07-18T05:52:45;18.50;99.90
27645;DHT22;15054;57.152;-2.118;2022-07-18T05:55:13;18.40;99.90
27645;DHT22;15054;57.152;-2.118;2022-07-18T05:57:40;18.40;99.90
27645;DHT22;15054;57.152;-2.118;2022-07-18T06:00:09;18.30;99.90
27645;DHT22;15054;57.152;-2.118;2022-07-18T06:02:37;18.30;99.90
27645;DHT22;15054;57.152;-2.118;2022-07-18T06:05:05;18.30;99.90
27645;DHT22;15054;57.152;-2.118;2022-07-18T06:07:55;18.30;99.90
27645;DHT22;15054;57.152;-2.118;2022-07-18T06:10:24;18.40;99.90
27645;DHT22;15054;57.152;-2.118;2022-07-18T06:12:52;18.40;99.90
27645;DHT22;15054;57.152;-2.118;2022-07-18T06:15:20;18.40;99.90
27645;DHT22;15054;57.152;-2.118;2022-07-18T06:17:47;18.50;99.90
27645;DHT22;15054;57.152;-2.118;2022-07-18T06:20:15;18.60;99.90
27645;DHT22;15054;57.152;-2.118;2022-07-18T06:22:42;18.70;99.90
27645;DHT22;15054;57.152;-2.118;2022-07-18T06:25:09;18.70;99.90
27645;DHT22;15054;57.152;-2.118;2022-07-18T06:27:37;18.80;99.90
27645;DHT22;15054;57.152;-2.118;2022-07-18T06:30:05;18.90;99.90
27645;DHT22;15054;57.152;-2.118;2022-07-18T06:32:34;19.10;99.90
27645;DHT22;15054;57.152;-2.118;2022-07-18T06:35:01;19.40;99.90
27645;DHT22;15054;57.152;-2.118;2022-07-18T06:37:29;19.60;99.90
27645;DHT22;15054;57.152;-2.118;2022-07-18T06:39:56;19.80;99.90
27645;DHT22;15054;57.152;-2.118;2022-07-18T06:42:28;19.80;99.90
27645;DHT22;15054;57.152;-2.118;2022-07-18T06:44:55;19.90;99.90
27645;DHT22;15054;57.152;-2.118;2022-07-18T06:47:23;20.20;99.90
27645;DHT22;15054;57.152;-2.118;2022-07-18T06:49:50;20.40;99.90
27645;DHT22;15054;57.152;-2.118;2022-07-18T06:52:18;20.50;99.90
27645;DHT22;15054;57.152;-2.118;2022-07-18T06:54:45;20.50;99.90
27645;DHT22;15054;57.152;-2.118;2022-07-18T06:57:13;20.70;99.90
27645;DHT22;15054;57.152;-2.118;2022-07-18T06:59:40;20.70;99.90
27645;DHT22;15054;57.152;-2.118;2022-07-18T07:02:14;20.80;99.90
27645;DHT22;15054;57.152;-2.118;2022-07-18T07:04:42;20.90;99.90
27645;DHT22;15054;57.152;-2.118;2022-07-18T07:07:09;21.10;99.90
27645;DHT22;15054;57.152;-2.118;2022-07-18T07:09:39;21.30;99.90
27645;DHT22;15054;57.152;-2.118;2022-07-18T07:12:10;21.60;99.90
27645;DHT22;15054;57.152;-2.118;2022-07-18T07:14:40;22.00;99.90
27645;DHT22;15054;57.152;-2.118;2022-07-18T07:17:08;22.30;99.90
27645;DHT22;15054;57.152;-2.118;2022-07-18T07:19:35;22.40;99.90
27645;DHT22;15054;57.152;-2.118;2022-07-18T07:22:02;22.40;99.90
27645;DHT22;15054;57.152;-2.118;2022-07-18T07:24:29;22.70;99.90
27645;DHT22;15054;57.152;-2.118;2022-07-18T07:26:56;22.50;99.90
27645;DHT22;15054;57.152;-2.118;2022-07-18T07:29:24;22.30;99.90
27645;DHT22;15054;57.152;-2.118;2022-07-18T07:31:51;22.30;99.90
27645;DHT22;15054;57.152;-2.118;2022-07-18T07:34:18;22.10;99.90
27645;DHT22;15054;57.152;-2.118;2022-07-18T07:36:46;22.10;99.90
27645;DHT22;15054;57.152;-2.118;2022-07-18T07:39:13;22.10;99.90
27645;DHT22;15054;57.152;-2.118;2022-07-18T07:41:40;22.20;99.90
27645;DHT22;15054;57.152;-2.118;2022-07-18T07:44:08;22.40;99.90
27645;DHT22;15054;57.152;-2.118;2022-07-18T07:46:36;22.50;99.90
27645;DHT22;15054;57.152;-2.118;2022-07-18T07:49:03;22.50;99.90
27645;DHT22;15054;57.152;-2.118;2022-07-18T07:51:30;22.60;99.90
27645;DHT22;15054;57.152;-2.118;2022-07-18T07:54:02;22.90;99.90
27645;DHT22;15054;57.152;-2.118;2022-07-18T07:56:29;23.00;99.90
27645;DHT22;15054;57.152;-2.118;2022-07-18T07:58:56;22.80;99.90
27645;DHT22;15054;57.152;-2.118;2022-07-18T08:01:23;22.90;99.90
27645;DHT22;15054;57.152;-2.118;2022-07-18T08:03:51;23.00;99.90
27645;DHT22;15054;57.152;-2.118;2022-07-18T08:06:19;23.00;99.90
27645;DHT22;15054;57.152;-2.118;2022-07-18T08:08:46;22.90;99.90
27645;DHT22;15054;57.152;-2.118;2022-07-18T08:11:13;22.80;99.90
27645;DHT22;15054;57.152;-2.118;2022-07-18T08:13:41;22.90;99.90
27645;DHT22;15054;57.152;-2.118;2022-07-18T08:16:08;22.90;99.90
27645;DHT22;15054;57.152;-2.118;2022-07-18T08:18:36;23.00;99.90
27645;DHT22;15054;57.152;-2.118;2022-07-18T08:21:04;23.00;99.90
27645;DHT22;15054;57.152;-2.118;2022-07-18T08:23:31;23.00;99.90
27645;DHT22;15054;57.152;-2.118;2022-07-18T08:25:59;23.20;99.90
27645;DHT22;15054;57.152;-2.118;2022-07-18T08:28:26;23.20;99.90
27645;DHT22;15054;57.152;-2.118;2022-07-18T08:30:53;23.20;99.90
27645;DHT22;15054;57.152;-2.118;2022-07-18T08:33:20;23.20;99.90
27645;DHT22;15054;57.152;-2.118;2022-07-18T08:35:49;23.30;99.90
27645;DHT22;15054;57.152;-2.118;2022-07-18T08:38:16;22.90;99.90
27645;DHT22;15054;57.152;-2.118;2022-07-18T08:40:44;22.90;99.90
27645;DHT22;15054;57.152;-2.118;2022-07-18T08:43:15;22.70;99.90
27645;DHT22;15054;57.152;-2.118;2022-07-18T08:45:51;22.70;99.90
27645;DHT22;15054;57.152;-2.118;2022-07-18T08:48:23;22.70;99.90
27645;DHT22;15054;57.152;-2.118;2022-07-18T08:50:50;22.70;99.90
27645;DHT22;15054;57.152;-2.118;2022-07-18T08:53:18;22.80;99.90
27645;DHT22;15054;57.152;-2.118;2022-07-18T08:55:46;22.90;99.90
27645;DHT22;15054;57.152;-2.118;2022-07-18T08:58:15;23.00;99.90
27645;DHT22;15054;57.152;-2.118;2022-07-18T09:01:04;23.10;99.90
27645;DHT22;15054;57.152;-2.118;2022-07-18T09:03:32;22.50;99.90
27645;DHT22;15054;57.152;-2.118;2022-07-18T09:06:17;22.10;99.90
27645;DHT22;15054;57.152;-2.118;2022-07-18T09:09:01;22.10;99.90
27645;DHT22;15054;57.152;-2.118;2022-07-18T09:11:28;21.90;99.90
27645;DHT22;15054;57.152;-2.118;2022-07-18T09:19:31;22.00;99.90
27645;DHT22;15054;57.152;-2.118;2022-07-18T09:30:10;21.80;99.90
27645;DHT22;15054;57.152;-2.118;2022-07-18T09:32:43;21.80;99.90
27645;DHT22;15054;57.152;-2.118;2022-07-18T09:35:16;22.20;99.90
27645;DHT22;15054;57.152;-2.118;2022-07-18T09:38:06;22.40;99.90
27645;DHT22;15054;57.152;-2.118;2022-07-18T09:43:07;22.20;99.90
27645;DHT22;15054;57.152;-2.118;2022-07-18T09:45:40;22.20;99.90
27645;DHT22;15054;57.152;-2.118;2022-07-18T09:48:11;22.20;99.90
27645;DHT22;15054;57.152;-2.118;2022-07-18T09:50:59;22.40;99.90
27645;DHT22;15054;57.152;-2.118;2022-07-18T09:53:31;22.40;99.90
27645;DHT22;15054;57.152;-2.118;2022-07-18T09:56:05;22.50;99.90
27645;DHT22;15054;57.152;-2.118;2022-07-18T09:58:56;22.40;99.90
27645;DHT22;15054;57.152;-2.118;2022-07-18T10:01:23;22.60;99.90
27645;DHT22;15054;57.152;-2.118;2022-07-18T10:03:51;22.60;99.90
27645;DHT22;15054;57.152;-2.118;2022-07-18T10:06:18;22.50;99.90
27645;DHT22;15054;57.152;-2.118;2022-07-18T10:08:45;22.70;99.90
27645;DHT22;15054;57.152;-2.118;2022-07-18T10:11:13;22.90;99.90
27645;DHT22;15054;57.152;-2.118;2022-07-18T10:13:40;23.00;99.90
27645;DHT22;15054;57.152;-2.118;2022-07-18T10:16:07;23.50;99.90
27645;DHT22;15054;57.152;-2.118;2022-07-18T10:18:35;23.60;99.90
27645;DHT22;15054;57.152;-2.118;2022-07-18T10:21:09;23.40;99.90
27645;DHT22;15054;57.152;-2.118;2022-07-18T10:23:46;23.30;99.90
27645;DHT22;15054;57.152;-2.118;2022-07-18T10:26:19;23.40;99.90
27645;DHT22;15054;57.152;-2.118;2022-07-18T10:31:26;22.90;99.90
27645;DHT22;15054;57.152;-2.118;2022-07-18T10:34:09;22.60;99.90
27645;DHT22;15054;57.152;-2.118;2022-07-18T10:39:19;22.50;99.90
27645;DHT22;15054;57.152;-2.118;2022-07-18T10:47:17;22.80;99.90
27645;DHT22;15054;57.152;-2.118;2022-07-18T11:00:37;24.10;99.90
27645;DHT22;15054;57.152;-2.118;2022-07-18T11:03:09;24.30;99.90
27645;DHT22;15054;57.152;-2.118;2022-07-18T11:05:50;24.50;99.90
27645;DHT22;15054;57.152;-2.118;2022-07-18T11:08:20;24.40;99.90
27645;DHT22;15054;57.152;-2.118;2022-07-18T11:13:48;24.60;99.90
27645;DHT22;15054;57.152;-2.118;2022-07-18T11:16:20;24.80;99.90
27645;DHT22;15054;57.152;-2.118;2022-07-18T11:21:17;24.50;99.90
27645;DHT22;15054;57.152;-2.118;2022-07-18T11:23:52;24.40;99.90
27645;DHT22;15054;57.152;-2.118;2022-07-18T11:26:22;24.60;99.90
27645;DHT22;15054;57.152;-2.118;2022-07-18T11:28:58;24.50;99.90
27645;DHT22;15054;57.152;-2.118;2022-07-18T11:31:26;24.40;99.90
27645;DHT22;15054;57.152;-2.118;2022-07-18T11:33:54;24.50;99.90
27645;DHT22;15054;57.152;-2.118;2022-07-18T11:36:27;24.40;99.90
27645;DHT22;15054;57.152;-2.118;2022-07-18T11:38:58;24.20;99.90
27645;DHT22;15054;57.152;-2.118;2022-07-18T11:41:26;24.40;99.90
27645;DHT22;15054;57.152;-2.118;2022-07-18T11:43:55;24.40;99.90
27645;DHT22;15054;57.152;-2.118;2022-07-18T11:46:24;24.20;99.90
27645;DHT22;15054;57.152;-2.118;2022-07-18T11:49:05;24.20;99.90
27645;DHT22;15054;57.152;-2.118;2022-07-18T11:51:38;24.70;99.90
27645;DHT22;15054;57.152;-2.118;2022-07-18T11:54:09;24.70;99.90
27645;DHT22;15054;57.152;-2.118;2022-07-18T11:56:49;24.40;99.90
27645;DHT22;15054;57.152;-2.118;2022-07-18T11:59:16;24.60;99.90
27645;DHT22;15054;57.152;-2.118;2022-07-18T12:01:44;24.60;99.90
27645;DHT22;15054;57.152;-2.118;2022-07-18T12:04:19;24.80;99.90
27645;DHT22;15054;57.152;-2.118;2022-07-18T12:09:41;24.90;99.90
27645;DHT22;15054;57.152;-2.118;2022-07-18T12:12:12;24.90;99.90
27645;DHT22;15054;57.152;-2.118;2022-07-18T12:14:58;25.00;99.90
27645;DHT22;15054;57.152;-2.118;2022-07-18T12:17:27;25.40;99.90
27645;DHT22;15054;57.152;-2.118;2022-07-18T12:20:16;25.50;99.90
27645;DHT22;15054;57.152;-2.118;2022-07-18T12:23:09;25.60;99.90
27645;DHT22;15054;57.152;-2.118;2022-07-18T12:25:41;25.10;99.90
27645;DHT22;15054;57.152;-2.118;2022-07-18T12:28:17;25.00;99.90
27645;DHT22;15054;57.152;-2.118;2022-07-18T12:30:45;25.10;99.90
27645;DHT22;15054;57.152;-2.118;2022-07-18T12:33:12;25.40;99.90
27645;DHT22;15054;57.152;-2.118;2022-07-18T12:35:40;25.20;99.90
27645;DHT22;15054;57.152;-2.118;2022-07-18T12:38:08;25.50;99.90
27645;DHT22;15054;57.152;-2.118;2022-07-18T12:43:29;26.40;99.90
27645;DHT22;15054;57.152;-2.118;2022-07-18T12:46:00;26.90;99.90
27645;DHT22;15054;57.152;-2.118;2022-07-18T12:48:28;26.60;99.90
27645;DHT22;15054;57.152;-2.118;2022-07-18T12:51:01;26.10;99.90
27645;DHT22;15054;57.152;-2.118;2022-07-18T12:53:31;26.10;99.90
27645;DHT22;15054;57.152;-2.118;2022-07-18T12:55:59;25.80;99.90
27645;DHT22;15054;57.152;-2.118;2022-07-18T12:58:26;25.30;99.90
27645;DHT22;15054;57.152;-2.118;2022-07-18T13:00:53;25.00;99.90
27645;DHT22;15054;57.152;-2.118;2022-07-18T13:03:32;25.30;99.90
27645;DHT22;15054;57.152;-2.118;2022-07-18T13:06:00;25.40;99.90
27645;DHT22;15054;57.152;-2.118;2022-07-18T13:08:27;25.50;99.90
27645;DHT22;15054;57.152;-2.118;2022-07-18T13:10:55;25.90;99.90
27645;DHT22;15054;57.152;-2.118;2022-07-18T13:13:22;26.30;99.90
27645;DHT22;15054;57.152;-2.118;2022-07-18T13:15:49;26.20;99.90
27645;DHT22;15054;57.152;-2.118;2022-07-18T13:18:17;25.60;99.90
27645;DHT22;15054;57.152;-2.118;2022-07-18T13:20:44;25.50;99.90
27645;DHT22;15054;57.152;-2.118;2022-07-18T13:23:12;25.60;99.90
27645;DHT22;15054;57.152;-2.118;2022-07-18T13:25:42;25.20;99.90
27645;DHT22;15054;57.152;-2.118;2022-07-18T13:28:10;25.10;99.90
27645;DHT22;15054;57.152;-2.118;2022-07-18T13:30:38;25.00;99.90
27645;DHT22;15054;57.152;-2.118;2022-07-18T13:33:05;24.70;99.90
27645;DHT22;15054;57.152;-2.118;2022-07-18T13:35:34;24.80;99.90
27645;DHT22;15054;57.152;-2.118;2022-07-18T13:38:01;25.00;99.90
27645;DHT22;15054;57.152;-2.118;2022-07-18T13:40:28;25.00;99.90
27645;DHT22;15054;57.152;-2.118;2022-07-18T13:42:56;25.20;99.90
27645;DHT22;15054;57.152;-2.118;2022-07-18T13:45:23;25.20;99.90
27645;DHT22;15054;57.152;-2.118;2022-07-18T13:47:50;25.00;99.90
27645;DHT22;15054;57.152;-2.118;2022-07-18T13:50:17;25.10;99.90
27645;DHT22;15054;57.152;-2.118;2022-07-18T13:52:45;25.20;99.90
27645;DHT22;15054;57.152;-2.118;2022-07-18T13:55:12;25.10;99.90
27645;DHT22;15054;57.152;-2.118;2022-07-18T13:57:39;25.00;99.90
27645;DHT22;15054;57.152;-2.118;2022-07-18T14:00:08;24.80;99.90
27645;DHT22;15054;57.152;-2.118;2022-07-18T14:02:36;24.40;99.90
27645;DHT22;15054;57.152;-2.118;2022-07-18T14:05:04;24.70;99.90
27645;DHT22;15054;57.152;-2.118;2022-07-18T14:07:39;24.20;99.90
27645;DHT22;15054;57.152;-2.118;2022-07-18T14:10:07;24.00;99.90
27645;DHT22;15054;57.152;-2.118;2022-07-18T14:12:34;23.80;99.90
27645;DHT22;15054;57.152;-2.118;2022-07-18T14:15:02;23.80;99.90
27645;DHT22;15054;57.152;-2.118;2022-07-18T14:17:30;24.00;99.90
27645;DHT22;15054;57.152;-2.118;2022-07-18T14:19:59;24.00;99.90
27645;DHT22;15054;57.152;-2.118;2022-07-18T14:22:27;24.20;99.90
27645;DHT22;15054;57.152;-2.118;2022-07-18T14:24:54;24.00;99.90
27645;DHT22;15054;57.152;-2.118;2022-07-18T14:27:21;24.50;99.90
27645;DHT22;15054;57.152;-2.118;2022-07-18T14:29:50;24.80;99.90
27645;DHT22;15054;57.152;-2.118;2022-07-18T14:32:18;25.00;99.90
27645;DHT22;15054;57.152;-2.118;2022-07-18T14:34:45;25.00;99.90
27645;DHT22;15054;57.152;-2.118;2022-07-18T14:37:13;25.00;99.90
27645;DHT22;15054;57.152;-2.118;2022-07-18T14:39:40;25.30;99.90
27645;DHT22;15054;57.152;-2.118;2022-07-18T14:42:07;25.30;99.90
27645;DHT22;15054;57.152;-2.118;2022-07-18T14:44:35;25.30;99.90
27645;DHT22;15054;57.152;-2.118;2022-07-18T14:47:02;25.40;99.90
27645;DHT22;15054;57.152;-2.118;2022-07-18T14:49:30;25.50;99.90
27645;DHT22;15054;57.152;-2.118;2022-07-18T14:51:57;25.10;99.90
27645;DHT22;15054;57.152;-2.118;2022-07-18T14:54:28;24.40;99.90
27645;DHT22;15054;57.152;-2.118;2022-07-18T14:56:55;24.40;99.90
27645;DHT22;15054;57.152;-2.118;2022-07-18T14:59:24;24.40;99.90
27645;DHT22;15054;57.152;-2.118;2022-07-18T15:01:51;24.50;99.90
27645;DHT22;15054;57.152;-2.118;2022-07-18T15:04:19;24.60;99.90
27645;DHT22;15054;57.152;-2.118;2022-07-18T15:06:46;24.70;99.90
27645;DHT22;15054;57.152;-2.118;2022-07-18T15:09:14;24.80;99.90
27645;DHT22;15054;57.152;-2.118;2022-07-18T15:11:41;24.90;99.90
27645;DHT22;15054;57.152;-2.118;2022-07-18T15:14:09;25.10;99.90
27645;DHT22;15054;57.152;-2.118;2022-07-18T15:16:37;25.20;99.90
27645;DHT22;15054;57.152;-2.118;2022-07-18T15:19:04;25.30;99.90
27645;DHT22;15054;57.152;-2.118;2022-07-18T15:21:32;25.60;99.90
27645;DHT22;15054;57.152;-2.118;2022-07-18T15:24:00;25.60;99.90
27645;DHT22;15054;57.152;-2.118;2022-07-18T15:26:27;25.70;99.90
27645;DHT22;15054;57.152;-2.118;2022-07-18T15:28:55;25.60;99.90
27645;DHT22;15054;57.152;-2.118;2022-07-18T15:31:23;25.60;99.90
27645;DHT22;15054;57.152;-2.118;2022-07-18T15:33:50;25.40;99.90
27645;DHT22;15054;57.152;-2.118;2022-07-18T15:36:17;25.50;99.90
27645;DHT22;15054;57.152;-2.118;2022-07-18T15:38:44;25.60;99.90
27645;DHT22;15054;57.152;-2.118;2022-07-18T15:41:11;25.50;99.90
27645;DHT22;15054;57.152;-2.118;2022-07-18T15:43:40;25.40;99.90
27645;DHT22;15054;57.152;-2.118;2022-07-18T15:46:07;25.40;99.90
27645;DHT22;15054;57.152;-2.118;2022-07-18T15:48:35;25.20;99.90
27645;DHT22;15054;57.152;-2.118;2022-07-18T15:51:03;25.00;99.90
27645;DHT22;15054;57.152;-2.118;2022-07-18T15:53:30;25.10;99.90
27645;DHT22;15054;57.152;-2.118;2022-07-18T15:55:57;25.10;99.90
27645;DHT22;15054;57.152;-2.118;2022-07-18T15:58:25;25.20;99.90
27645;DHT22;15054;57.152;-2.118;2022-07-18T16:00:52;25.10;99.90
27645;DHT22;15054;57.152;-2.118;2022-07-18T16:03:20;24.90;99.90
27645;DHT22;15054;57.152;-2.118;2022-07-18T16:05:47;24.90;99.90
27645;DHT22;15054;57.152;-2.118;2022-07-18T16:08:18;24.80;99.90
27645;DHT22;15054;57.152;-2.118;2022-07-18T16:10:45;24.60;99.90
27645;DHT22;15054;57.152;-2.118;2022-07-18T16:13:12;24.50;99.90